Time;durP1;ratioP1;P1;durP2;ratioP2;P2;SDS_P1;SDS_P2;PMS_P1;PMS_P2;Temp;Humidity;BMP_temperature;BMP_pressure;BME280_temperature;BME280_humidity;BME280_pressure;Samples;Min_cycle;Max_cycle;Signal;HPM_P1;HPM_P2
2022/10/05 00:01:23;;;;;;;4.20;2.13;;;;;;;10.02;64.81;93589.66;2053134;70;20596;-77
2022/10/05 00:03:50;;;;;;;6.75;1.92;;;;;;;10.03;65.04;93590.38;2050874;70;20620;-77
2022/10/05 00:06:17;;;;;;;4.78;1.98;;;;;;;9.94;64.36;93589.00;2047916;70;20667;-76
2022/10/05 00:08:44;;;;;;;6.18;2.40;;;;;;;9.95;64.37;93586.97;2051482;70;20229;-78
2022/10/05 00:11:18;;;;;;;4.38;2.10;;;;;;;9.98;64.57;93597.03;2051474;70;20138;-78
2022/10/05 00:13:46;;;;;;;4.20;2.30;;;;;;;9.93;64.47;93596.72;2051355;70;20197;-78
2022/10/05 00:16:15;;;;;;;5.45;2.40;;;;;;;9.97;63.83;93593.47;2051289;70;20218;-77
2022/10/05 00:18:46;;;;;;;5.18;2.10;;;;;;;9.82;64.75;93602.91;2051501;70;20173;-77
2022/10/05 00:21:19;;;;;;;6.70;2.30;;;;;;;9.77;65.26;93595.47;2050905;70;20272;-77
2022/10/05 00:23:55;;;;;;;4.93;1.80;;;;;;;9.92;64.27;93595.25;2048015;70;20150;-77
2022/10/05 00:26:24;;;;;;;5.70;2.40;;;;;;;9.76;65.81;93598.84;2051296;69;20216;-76
2022/10/05 00:28:52;;;;;;;8.25;2.40;;;;;;;9.73;65.55;93602.84;2051325;70;20161;-77
2022/10/05 00:31:21;;;;;;;7.90;2.13;;;;;;;9.79;64.66;93603.31;2051066;70;20233;-77
2022/10/05 00:33:56;;;;;;;5.50;1.92;;;;;;;9.80;64.71;93599.91;2051112;70;20146;-76
2022/10/05 00:36:25;;;;;;;2.90;1.80;;;;;;;9.72;65.10;93601.38;2050789;70;20142;-73
2022/10/05 00:38:51;;;;;;;2.90;1.60;;;;;;;9.71;65.23;93602.69;2050494;70;20170;-74
2022/10/05 00:41:25;;;;;;;6.88;1.77;;;;;;;9.75;64.61;93603.72;2047310;70;20150;-74
2022/10/05 00:44:16;;;;;;;2.72;1.60;;;;;;;9.76;64.34;93596.03;2050456;70;20232;-74
2022/10/05 00:47:09;;;;;;;5.80;2.20;;;;;;;9.68;64.71;93596.16;2052648;70;20185;-75
2022/10/05 00:50:16;;;;;;;4.35;2.10;;;;;;;9.62;64.99;93585.19;2050727;70;20150;-75
2022/10/05 00:53:03;;;;;;;4.70;1.58;;;;;;;9.66;64.61;93591.09;2042913;70;20159;-74
2022/10/05 00:55:54;;;;;;;5.38;1.52;;;;;;;9.62;65.28;93582.38;2039918;70;20647;-76
2022/10/05 00:58:44;;;;;;;3.58;1.52;;;;;;;9.59;64.95;93583.53;2043369;70;20269;-73
2022/10/05 01:01:34;;;;;;;3.83;1.40;;;;;;;9.55;64.86;93588.09;2042872;70;20199;-76
2022/10/05 01:04:18;;;;;;;4.40;1.52;;;;;;;9.53;65.57;93585.88;2040775;70;20606;-76
2022/10/05 01:07:12;;;;;;;3.17;1.35;;;;;;;9.48;65.55;93594.56;2040575;70;21077;-76
2022/10/05 01:09:52;;;;;;;;;;;;;;;9.33;66.08;93585.00;2043901;70;20147;-77
2022/10/05 01:12:34;;;;;;;3.70;1.50;;;;;;;9.49;64.71;93579.94;2043318;70;20589;-75
2022/10/05 01:15:20;;;;;;;2.22;1.30;;;;;;;9.51;64.85;93582.91;2042725;70;20186;-77
2022/10/05 01:17:58;;;;;;;4.70;1.40;;;;;;;9.45;64.90;93579.63;2045866;70;20186;-76
2022/10/05 01:20:26;;;;;;;2.47;1.30;;;;;;;9.44;65.00;93578.13;2043094;70;20214;-77
2022/10/05 01:23:20;;;;;;;2.35;1.00;;;;;;;9.43;64.61;93571.00;2042675;70;20178;-78
2022/10/05 01:26:11;;;;;;;3.05;1.30;;;;;;;9.33;65.65;93570.94;2053201;70;20165;-76
2022/10/05 01:28:45;;;;;;;4.40;1.83;;;;;;;9.43;65.14;93577.38;2050922;70;20146;-76
2022/10/05 01:31:41;;;;;;;2.33;1.20;;;;;;;9.38;65.18;93584.00;2051694;70;20146;-78
2022/10/05 01:34:17;;;;;;;1.30;1.20;;;;;;;9.38;64.54;93567.13;2053748;70;20172;-78
2022/10/05 01:36:49;;;;;;;2.72;1.30;;;;;;;9.19;66.36;93566.28;2051372;70;20230;-78
2022/10/05 01:39:30;;;;;;;2.75;1.40;;;;;;;9.21;65.76;93563.63;2053542;69;20193;-78
2022/10/05 01:42:05;;;;;;;3.45;1.15;;;;;;;9.23;65.41;93566.59;2053478;70;20684;-77
2022/10/05 01:44:39;;;;;;;2.05;1.40;;;;;;;9.31;64.64;93565.19;2051315;70;20161;-78
2022/10/05 01:47:24;;;;;;;4.05;1.60;;;;;;;9.20;65.60;93565.69;2051410;70;20177;-76
2022/10/05 01:49:55;;;;;;;5.38;1.30;;;;;;;9.15;64.92;93569.50;2051583;70;20150;-77
2022/10/05 01:53:04;;;;;;;6.60;1.40;;;;;;;9.04;66.43;93576.38;2051435;70;20185;-78
2022/10/05 01:55:40;;;;;;;2.72;1.27;;;;;;;9.05;65.70;93577.13;2039556;70;20160;-76
2022/10/05 01:58:08;;;;;;;4.63;1.30;;;;;;;9.13;64.77;93578.53;2037375;70;20243;-78
2022/10/05 02:01:08;;;;;;;3.17;1.30;;;;;;;9.17;64.76;93578.13;2034571;70;20147;-78
2022/10/05 02:03:42;;;;;;;4.10;1.70;;;;;;;9.09;64.94;93574.66;2033947;70;20159;-77
2022/10/05 02:06:18;;;;;;;3.60;1.30;;;;;;;9.06;64.80;93581.41;2037002;70;20147;-78
2022/10/05 02:08:53;;;;;;;2.65;1.10;;;;;;;8.95;66.21;93573.50;2034564;70;20228;-78
2022/10/05 02:11:19;;;;;;;2.88;1.08;;;;;;;9.04;65.80;93575.66;2034060;70;20140;-76
2022/10/05 02:14:01;;;;;;;2.35;1.10;;;;;;;9.04;64.82;93567.22;2037038;70;20560;-79
2022/10/05 02:16:41;;;;;;;1.88;1.10;;;;;;;9.00;65.04;93564.81;2037063;70;20203;-77
2022/10/05 02:19:22;;;;;;;4.65;1.20;;;;;;;8.95;65.24;93557.41;2034432;70;20183;-78
2022/10/05 02:22:02;;;;;;;2.20;1.13;;;;;;;8.95;65.64;93556.66;2037288;70;20251;-78
2022/10/05 02:24:37;;;;;;;2.03;1.30;;;;;;;9.03;65.32;93557.31;2037283;70;20158;-77
2022/10/05 02:27:08;;;;;;;1.48;1.20;;;;;;;8.95;65.70;93546.16;2034480;70;20296;-79
2022/10/05 02:29:38;;;;;;;5.63;1.30;;;;;;;8.89;66.42;93554.84;2037144;70;20750;-78
2022/10/05 02:32:13;;;;;;;6.38;1.52;;;;;;;8.92;66.03;93552.94;2047841;70;20232;-76
2022/10/05 02:34:41;;;;;;;3.35;1.25;;;;;;;8.91;65.77;93554.25;2053689;70;20230;-74
2022/10/05 02:37:41;;;;;;;3.25;1.20;;;;;;;8.90;65.46;93558.41;2053699;70;20182;-79
2022/10/05 02:40:35;;;;;;;4.05;1.20;;;;;;;8.84;66.33;93560.69;2050864;70;20146;-78
2022/10/05 02:43:26;;;;;;;2.17;1.15;;;;;;;8.83;65.52;93564.84;2051617;70;20179;-78
2022/10/05 02:46:19;;;;;;;2.13;0.93;;;;;;;8.79;65.47;93556.09;2048112;70;20158;-79
2022/10/05 02:49:18;;;;;;;4.15;1.20;;;;;;;8.75;65.77;93555.75;2045859;70;20245;-78
2022/10/05 02:51:57;;;;;;;2.70;0.95;;;;;;;8.75;65.67;93553.72;2047853;70;20155;-77
2022/10/05 02:54:47;;;;;;;4.50;1.60;;;;;;;8.78;64.85;93546.91;2047838;70;20514;-78
2022/10/05 02:57:32;;;;;;;1.55;1.00;;;;;;;8.69;66.35;93539.16;2047329;70;20301;-78
2022/10/05 03:00:12;;;;;;;4.20;1.30;;;;;;;8.73;65.88;93535.94;2047244;70;20162;-78
2022/10/05 03:03:05;;;;;;;4.15;1.30;;;;;;;8.73;64.97;93536.69;2047376;70;20217;-76
2022/10/05 03:05:36;;;;;;;;;;;;;;;8.69;66.18;93532.81;2048121;70;20194;-78
2022/10/05 03:08:31;;;;;;;3.38;1.40;;;;;;;8.72;65.61;93537.28;2050038;70;20434;-75
2022/10/05 03:11:19;;;;;;;5.60;1.90;;;;;;;8.42;67.32;93527.84;2047313;70;20142;-79
2022/10/05 03:14:11;;;;;;;5.72;1.98;;;;;;;8.65;65.85;93536.03;2046784;70;20598;-79
2022/10/05 03:16:56;;;;;;;6.82;1.88;;;;;;;8.67;64.93;93527.78;2047055;70;20602;-79
2022/10/05 03:19:32;;;;;;;4.50;1.67;;;;;;;8.77;64.43;93539.09;2046868;70;20233;-78
2022/10/05 03:22:04;;;;;;;4.90;1.60;;;;;;;8.64;66.05;93537.34;2046835;70;20707;-76
2022/10/05 03:24:47;;;;;;;4.45;1.80;;;;;;;8.58;66.65;93542.50;2046723;70;20159;-79
2022/10/05 03:27:42;;;;;;;9.98;4.88;;;;;;;8.61;65.55;93527.28;2046809;70;20159;-79
2022/10/05 03:30:17;;;;;;;37.30;19.85;;;;;;;8.55;66.23;93524.72;2044371;70;20139;-79
2022/10/05 03:33:03;;;;;;;16.88;8.73;;;;;;;8.56;65.33;93511.44;2044461;70;20171;-78
2022/10/05 03:35:57;;;;;;;12.63;7.63;;;;;;;8.65;65.57;93511.50;2046600;70;20173;-78
2022/10/05 03:39:01;;;;;;;15.55;7.15;;;;;;;8.05;69.26;93515.66;2046727;70;20154;-76
2022/10/05 03:41:40;;;;;;;13.82;5.28;;;;;;;8.36;66.47;93522.50;2043008;70;20182;-75
2022/10/05 03:44:31;;;;;;;9.38;4.40;;;;;;;8.50;65.64;93524.97;2046757;70;20155;-77
2022/10/05 03:47:13;;;;;;;8.82;4.60;;;;;;;8.47;65.59;93517.72;2043960;70;20146;-77
2022/10/05 03:49:47;;;;;;;7.85;4.72;;;;;;;8.44;66.64;93521.69;2046672;70;20583;-76
2022/10/05 03:52:22;;;;;;;11.43;3.72;;;;;;;8.43;66.07;93518.16;2046654;70;20191;-74
2022/10/05 03:54:50;;;;;;;6.95;3.67;;;;;;;8.43;66.37;93518.16;2044474;70;20145;-76
2022/10/05 03:57:26;;;;;;;7.63;3.50;;;;;;;8.44;65.41;93521.69;2044425;70;20143;-75
2022/10/05 04:00:13;;;;;;;7.25;4.80;;;;;;;8.40;65.66;93524.91;2046631;70;20549;-78
2022/10/05 04:03:20;;;;;;;7.63;3.40;;;;;;;8.42;65.72;93529.94;2046643;70;20250;-78
2022/10/05 04:05:50;;;;;;;8.43;2.75;;;;;;;8.42;65.18;93527.84;2046631;70;20238;-76
2022/10/05 04:08:30;;;;;;;10.38;4.35;;;;;;;8.34;65.79;93538.41;2046636;70;20250;-78
2022/10/05 04:11:01;;;;;;;6.05;3.30;;;;;;;8.38;65.35;93541.56;2043826;70;20226;-77
2022/10/05 04:13:45;;;;;;;4.85;2.50;;;;;;;8.38;65.75;93547.16;2046183;70;20162;-76
2022/10/05 04:16:31;;;;;;;9.00;5.07;;;;;;;8.32;65.91;93546.66;2047585;70;20145;-77
2022/10/05 04:19:18;;;;;;;10.68;6.20;;;;;;;8.32;65.72;93549.44;2047741;70;20135;-77
2022/10/05 04:22:29;;;;;;;11.30;7.20;;;;;;;8.29;65.59;93548.56;2047958;70;20157;-76
2022/10/05 04:24:59;;;;;;;19.15;12.85;;;;;;;8.25;66.71;93548.22;2033521;70;20163;-76
2022/10/05 04:27:34;;;;;;;22.00;14.27;;;;;;;8.24;66.66;93548.78;2033396;70;20143;-77
2022/10/05 04:30:12;;;;;;;18.50;12.07;;;;;;;8.24;66.25;93548.78;2033230;70;20152;-76
2022/10/05 04:32:43;;;;;;;16.38;10.35;;;;;;;8.23;65.93;93544.50;2030569;70;20136;-76
2022/10/05 04:35:42;;;;;;;13.63;8.45;;;;;;;8.12;67.13;93548.53;2030651;70;20302;-78
2022/10/05 04:38:39;;;;;;;23.55;11.90;;;;;;;8.17;66.63;93546.81;2030651;70;20572;-75
2022/10/05 04:41:10;;;;;;;18.58;12.40;;;;;;;8.19;66.13;93552.56;2027912;70;20156;-76
2022/10/05 04:43:57;;;;;;;17.88;10.82;;;;;;;8.19;65.35;93552.56;2030772;70;20580;-76
2022/10/05 04:46:35;;;;;;;14.82;9.82;;;;;;;8.17;65.76;93553.16;2030623;70;20159;-76
2022/10/05 04:49:42;;;;;;;16.92;10.15;;;;;;;8.20;65.72;93548.44;2030639;70;20150;-75
2022/10/05 04:52:23;;;;;;;29.45;18.20;;;;;;;8.10;66.20;93557.50;2030507;70;20232;-77
2022/10/05 04:55:29;;;;;;;40.28;21.67;;;;;;;8.16;65.96;93551.66;2030740;70;20227;-77
2022/10/05 04:58:18;;;;;;;34.20;19.30;;;;;;;8.10;66.06;93559.56;2032351;70;20160;-74
2022/10/05 05:01:16;;;;;;;25.92;13.60;;;;;;;8.09;66.37;93560.88;2046979;70;20167;-77
2022/10/05 05:04:16;;;;;;;25.45;14.73;;;;;;;8.06;66.62;93559.22;2050005;70;20694;-78
2022/10/05 05:07:00;;;;;;;23.65;14.20;;;;;;;8.10;66.04;93559.56;2039554;70;20162;-75
2022/10/05 05:09:40;;;;;;;40.03;24.08;;;;;;;8.13;66.80;93559.16;2050304;70;20522;-76
2022/10/05 05:12:25;;;;;;;35.67;20.92;;;;;;;8.09;67.08;93567.22;2050239;70;20150;-76
2022/10/05 05:15:04;;;;;;;28.25;15.93;;;;;;;8.30;64.71;93563.31;2048093;70;20178;-77
2022/10/05 05:17:57;;;;;;;19.52;12.02;;;;;;;8.15;66.43;93555.78;2050331;70;20146;-73
2022/10/05 05:20:53;;;;;;;15.45;7.57;;;;;;;8.01;67.51;93565.81;2048237;70;20159;-74
2022/10/05 05:24:07;;;;;;;17.15;10.75;;;;;;;8.09;65.79;93555.28;2047606;70;20253;-76
2022/10/05 05:27:16;;;;;;;16.73;9.90;;;;;;;8.16;64.55;93554.47;2035551;70;20236;-78
2022/10/05 05:29:45;;;;;;;15.48;4.93;;;;;;;8.16;65.65;93548.88;2047341;70;20166;-77
2022/10/05 05:32:22;;;;;;;7.50;5.15;;;;;;;8.13;67.04;93550.75;2047647;70;20139;-77
2022/10/05 05:35:07;;;;;;;9.40;3.55;;;;;;;8.21;65.82;93550.69;2050213;70;20510;-77
2022/10/05 05:37:45;;;;;;;5.88;3.58;;;;;;;8.18;66.10;93546.22;2047486;70;20155;-77
2022/10/05 05:40:15;;;;;;;4.88;3.63;;;;;;;8.34;65.09;93552.44;2047549;70;20173;-78
2022/10/05 05:42:50;;;;;;;3.83;2.92;;;;;;;8.33;65.77;93548.88;2048207;70;20589;-78
2022/10/05 05:45:30;;;;;;;3.28;1.60;;;;;;;8.42;64.93;93558.72;2047454;70;20139;-78
2022/10/05 05:47:58;;;;;;;10.95;6.40;;;;;;;7.68;68.71;93563.06;2050203;70;20131;-79
2022/10/05 05:51:01;;;;;;;11.65;5.85;;;;;;;8.12;66.89;93563.28;2044807;70;20142;-77
2022/10/05 05:53:56;;;;;;;9.13;4.73;;;;;;;8.31;64.08;93559.19;2045696;70;20188;-77
2022/10/05 05:56:37;;;;;;;7.53;3.50;;;;;;;8.30;65.33;93564.06;2044700;70;20210;-76
2022/10/05 05:59:10;;;;;;;4.82;3.40;;;;;;;8.30;65.25;93566.13;2044773;70;20146;-76
2022/10/05 06:01:46;;;;;;;6.38;3.33;;;;;;;8.33;65.23;93568.50;2050193;70;20245;-76
2022/10/05 06:04:27;;;;;;;11.40;3.78;;;;;;;8.32;65.65;93577.50;2050225;70;20174;-73
2022/10/05 06:06:55;;;;;;;11.55;4.70;;;;;;;8.33;65.01;93576.19;2048051;70;20265;-77
2022/10/05 06:09:27;;;;;;;32.63;6.35;;;;;;;8.31;65.69;93576.03;2047442;70;20146;-77
2022/10/05 06:12:08;;;;;;;9.23;5.82;;;;;;;8.20;65.39;93574.44;2044683;70;20171;-76
2022/10/05 06:14:53;;;;;;;11.65;6.10;;;;;;;8.29;66.31;93576.59;2044524;70;20241;-74
2022/10/05 06:17:51;;;;;;;8.25;5.68;;;;;;;8.29;65.88;93575.84;2044765;70;20540;-80
2022/10/05 06:20:56;;;;;;;7.28;4.60;;;;;;;8.29;65.55;93576.59;2048126;70;20213;-76
2022/10/05 06:23:33;;;;;;;7.60;4.40;;;;;;;8.26;66.56;93574.22;2047592;70;20597;-73
2022/10/05 06:26:10;;;;;;;8.50;4.35;;;;;;;8.30;66.22;93580.91;2047627;70;20179;-77
2022/10/05 06:28:35;;;;;;;8.85;4.70;;;;;;;8.28;65.89;93580.72;2047500;70;20550;-76
2022/10/05 06:31:24;;;;;;;8.13;4.65;;;;;;;8.31;65.95;93587.25;2044724;70;20161;-78
2022/10/05 06:34:16;;;;;;;40.05;22.63;;;;;;;8.20;67.10;93582.09;2047899;70;20165;-77
2022/10/05 06:37:06;;;;;;;29.95;20.02;;;;;;;8.07;67.66;93586.72;2047502;70;20169;-77
2022/10/05 06:40:04;;;;;;;19.48;11.00;;;;;;;8.22;66.39;93585.09;2047487;70;20192;-77
2022/10/05 06:42:51;;;;;;;23.70;14.73;;;;;;;8.16;66.96;93585.31;2045035;70;20167;-76
2022/10/05 06:45:57;;;;;;;;;;;;;;;8.24;66.77;93580.38;2045806;70;20165;-78
2022/10/05 06:49:12;;;;;;;18.17;12.13;;;;;;;8.24;66.90;93579.63;2050219;70;20074;-82
2022/10/05 06:52:45;;;;;;;20.63;12.88;;;;;;;8.25;66.47;93581.16;2046990;70;20162;-76
2022/10/05 06:55:22;;;;;;;21.42;12.73;;;;;;;8.21;68.12;93583.59;2047592;70;20146;-80
2022/10/05 06:58:25;;;;;;;23.38;13.52;;;;;;;8.27;67.14;93582.03;2044834;70;20157;-77
2022/10/05 07:01:14;;;;;;;18.15;12.35;;;;;;;8.22;67.41;93579.47;2047380;70;20138;-79
2022/10/05 07:04:11;;;;;;;24.88;14.73;;;;;;;8.33;66.17;93581.78;2047492;70;20161;-80
2022/10/05 07:06:43;;;;;;;23.00;14.20;;;;;;;8.32;67.02;93583.13;2050198;70;20151;-79
2022/10/05 07:09:27;;;;;;;22.65;14.63;;;;;;;8.38;66.01;93583.63;2048274;70;20147;-74
2022/10/05 07:12:15;;;;;;;22.98;12.90;;;;;;;8.38;67.19;93583.63;2047517;70;20185;-82
2022/10/05 07:15:00;;;;;;;20.80;13.18;;;;;;;8.39;66.94;93580.28;2047455;70;20230;-79
2022/10/05 07:17:58;;;;;;;16.00;10.20;;;;;;;8.37;67.18;93574.47;2048113;70;20266;-83
2022/10/05 07:20:32;;;;;;;18.45;8.98;;;;;;;8.37;66.61;93568.88;2043194;70;20167;-80
2022/10/05 07:23:18;;;;;;;14.95;9.40;;;;;;;8.45;64.00;93570.88;2047693;70;20193;-77
2022/10/05 07:25:59;;;;;;;17.00;9.02;;;;;;;8.42;67.80;93580.44;2047544;70;20139;-76
2022/10/05 07:29:03;;;;;;;15.35;9.23;;;;;;;8.30;69.04;93580.91;2047458;70;20162;-75
2022/10/05 07:31:33;;;;;;;;;;;;;;;8.50;67.36;93573.44;2047459;70;20158;-80
2022/10/05 07:34:14;;;;;;;14.40;7.20;;;;;;;8.46;68.53;93575.91;2047332;70;20471;-81
2022/10/05 07:40:07;;;;;;;11.65;5.93;;;;;;;8.58;67.57;93574.09;2050089;70;20178;-82
2022/10/05 07:42:49;;;;;;;8.32;5.00;;;;;;;8.59;64.83;93575.56;2047337;70;20217;-80
2022/10/05 07:45:24;;;;;;;17.10;7.43;;;;;;;8.84;67.21;93581.13;2047795;70;20143;-81
2022/10/05 07:48:00;;;;;;;11.95;7.18;;;;;;;9.23;64.16;93583.47;2044546;70;20178;-80
2022/10/05 07:50:34;;;;;;;11.35;6.88;;;;;;;9.65;66.09;93580.44;2048065;70;20147;-80
2022/10/05 07:53:21;;;;;;;14.65;8.35;;;;;;;10.02;67.95;93575.56;2047297;70;20158;-76
2022/10/05 07:56:08;;;;;;;13.05;7.40;;;;;;;10.45;66.07;93572.50;2047923;70;20139;-79
2022/10/05 07:58:50;;;;;;;9.10;6.03;;;;;;;10.84;65.13;93574.00;2050069;70;20182;-79
2022/10/05 08:01:40;;;;;;;10.48;6.10;;;;;;;11.04;64.24;93576.81;2047292;70;20150;-77
2022/10/05 08:04:23;;;;;;;10.45;5.50;;;;;;;11.52;64.48;93573.22;2050127;70;20242;-80
2022/10/05 08:07:00;;;;;;;15.93;6.07;;;;;;;11.91;63.50;93574.63;2047981;70;20236;-78
2022/10/05 08:09:37;;;;;;;12.40;5.75;;;;;;;12.17;63.97;93572.13;2048243;70;20420;-81
2022/10/05 08:12:27;;;;;;;18.70;9.43;;;;;;;12.43;63.09;93579.59;2047955;70;20249;-80
2022/10/05 08:14:57;;;;;;;13.23;6.78;;;;;;;12.68;61.13;93573.47;2049131;70;20263;-78
2022/10/05 08:17:56;;;;;;;10.68;5.97;;;;;;;13.11;60.82;93575.56;2047827;70;20158;-81
2022/10/05 08:20:38;;;;;;;10.00;4.72;;;;;;;13.40;59.63;93578.16;2047796;70;20682;-77
2022/10/05 08:23:16;;;;;;;6.72;3.20;;;;;;;13.55;58.76;93580.53;2047875;70;20154;-78
2022/10/05 08:26:21;;;;;;;6.22;2.92;;;;;;;14.09;56.36;93574.03;2047861;70;20151;-78
2022/10/05 08:29:24;;;;;;;4.97;3.30;;;;;;;14.63;57.10;93567.41;2047704;70;20591;-75
2022/10/05 08:31:55;;;;;;;10.68;5.95;;;;;;;14.53;54.90;93566.78;2047922;70;20142;-82
2022/10/05 08:34:36;;;;;;;16.95;8.45;;;;;;;15.15;55.06;93563.31;2049133;70;20332;-79
2022/10/05 08:37:22;;;;;;;12.20;6.50;;;;;;;15.50;54.67;93568.13;2051426;70;20197;-77
2022/10/05 08:40:20;;;;;;;11.65;6.10;;;;;;;16.27;52.97;93569.56;2051348;70;20185;-74
2022/10/05 08:43:09;;;;;;;12.00;4.50;;;;;;;16.49;51.81;93555.81;2051362;70;20566;-78
2022/10/05 08:46:01;;;;;;;9.73;4.68;;;;;;;16.29;51.00;93553.97;2051283;70;20146;-80
2022/10/05 08:48:49;;;;;;;6.85;3.92;;;;;;;16.90;50.25;93548.63;2049863;70;20188;-81
2022/10/05 08:51:30;;;;;;;4.57;2.30;;;;;;;17.17;49.17;93550.72;2051158;70;20574;-77
2022/10/05 08:54:18;;;;;;;4.28;2.38;;;;;;;17.11;45.76;93544.72;2051159;70;20206;-80
2022/10/05 08:57:06;;;;;;;3.65;2.45;;;;;;;17.39;48.07;93548.22;2051324;70;20256;-79
2022/10/05 08:59:58;;;;;;;4.22;1.73;;;;;;;17.69;46.04;93551.84;2053365;70;20138;-80
2022/10/05 09:02:30;;;;;;;4.53;1.97;;;;;;;17.54;43.28;93541.84;2051184;70;20547;-80
2022/10/05 09:05:19;;;;;;;3.60;2.30;;;;;;;17.99;45.75;93544.00;2051408;70;20283;-81
2022/10/05 09:08:03;;;;;;;5.00;3.30;;;;;;;18.38;45.44;93540.09;2051531;70;20170;-82
2022/10/05 09:10:44;;;;;;;4.25;2.25;;;;;;;18.48;41.24;93541.28;2051409;70;20286;-77
2022/10/05 09:13:48;;;;;;;3.90;2.03;;;;;;;18.76;40.52;93541.81;2051827;70;20245;-77
2022/10/05 09:16:35;;;;;;;3.25;1.92;;;;;;;19.12;42.57;93538.34;2051561;70;20139;-78
2022/10/05 09:19:31;;;;;;;3.08;1.88;;;;;;;19.34;41.81;93542.13;2051668;70;20153;-80
2022/10/05 09:22:22;;;;;;;2.42;1.80;;;;;;;19.45;42.15;93529.00;2051692;70;20158;-77
2022/10/05 09:25:02;;;;;;;3.80;1.50;;;;;;;19.50;39.72;93525.66;2048830;70;20161;-74
2022/10/05 09:27:53;;;;;;;2.33;1.35;;;;;;;20.03;40.12;93524.94;2051507;70;20210;-76
2022/10/05 09:30:38;;;;;;;3.90;1.30;;;;;;;20.54;39.08;93515.44;2054132;69;20253;-77
2022/10/05 09:33:50;;;;;;;1.15;0.90;;;;;;;20.42;36.16;93517.06;2051600;70;20150;-77
2022/10/05 09:36:57;;;;;;;1.35;0.75;;;;;;;21.53;39.26;93514.59;2052059;70;20527;-81
2022/10/05 09:39:49;;;;;;;1.17;0.93;;;;;;;21.45;36.55;93508.59;2040437;70;20167;-81
2022/10/05 09:42:54;;;;;;;0.98;0.80;;;;;;;21.75;34.91;93508.13;2037888;70;20175;-77
2022/10/05 09:45:28;;;;;;;;;;;;;;;21.86;36.01;93507.03;2037272;70;20227;-81
2022/10/05 09:48:26;;;;;;;1.20;0.90;;;;;;;22.43;35.41;93503.06;2036419;70;20044;-81
2022/10/05 09:50:57;;;;;;;1.95;0.90;;;;;;;22.92;35.37;93495.13;2036616;70;20144;-77
2022/10/05 09:53:48;;;;;;;1.75;1.00;;;;;;;23.10;35.28;93492.75;2037402;70;20214;-78
2022/10/05 09:56:50;;;;;;;1.70;0.80;;;;;;;23.51;33.17;93490.94;2039010;70;20242;-78
2022/10/05 09:59:41;;;;;;;1.77;1.10;;;;;;;23.07;35.13;93486.22;2038350;70;20196;-80
2022/10/05 10:02:26;;;;;;;1.85;1.00;;;;;;;23.36;32.34;93484.06;2038210;70;20261;-80
2022/10/05 10:05:09;;;;;;;1.88;1.10;;;;;;;24.22;33.51;93477.53;2037846;70;20147;-78
2022/10/05 10:07:58;;;;;;;3.20;1.25;;;;;;;23.99;32.54;93467.66;2037711;70;20139;-80
2022/10/05 10:10:35;;;;;;;1.27;0.90;;;;;;;25.19;30.98;93472.31;2038084;70;20147;-79
2022/10/05 10:13:20;;;;;;;1.77;1.30;;;;;;;24.19;31.52;93467.38;2043036;70;20241;-80
2022/10/05 10:15:58;;;;;;;1.80;1.00;;;;;;;25.50;30.47;93467.84;2052015;70;20229;-81
2022/10/05 10:19:02;;;;;;;1.20;1.00;;;;;;;25.28;29.98;93471.06;2052192;70;20164;-79
2022/10/05 10:21:48;;;;;;;4.18;1.20;;;;;;;26.41;28.16;93470.69;2040661;70;20631;-80
2022/10/05 10:24:21;;;;;;;4.28;1.20;;;;;;;26.17;26.19;93466.03;2037684;70;20643;-80
2022/10/05 10:26:52;;;;;;;1.00;0.90;;;;;;;25.95;26.91;93466.44;2040533;70;20294;-79
2022/10/05 10:29:36;;;;;;;3.25;0.88;;;;;;;26.87;27.55;93464.81;2040494;70;20147;-80
2022/10/05 10:32:17;;;;;;;5.13;0.90;;;;;;;26.48;24.76;93463.59;2040458;70;20143;-81
2022/10/05 10:35:13;;;;;;;1.33;0.70;;;;;;;27.59;26.18;93455.47;2041629;70;20171;-77
2022/10/05 10:38:13;;;;;;;3.35;1.00;;;;;;;27.78;27.09;93455.66;2041090;70;20223;-80
2022/10/05 10:40:54;;;;;;;2.38;1.27;;;;;;;27.99;25.63;93457.25;2040317;70;20143;-78
2022/10/05 10:43:57;;;;;;;1.75;0.90;;;;;;;28.87;25.30;93455.63;2040711;70;20147;-81
2022/10/05 10:47:00;;;;;;;2.50;1.00;;;;;;;29.72;24.98;93456.59;2040784;70;20345;-80
2022/10/05 10:49:47;;;;;;;1.85;0.80;;;;;;;29.95;23.17;93449.34;2040723;70;20138;-79
2022/10/05 10:52:16;;;;;;;1.98;0.80;;;;;;;30.49;23.57;93444.94;2045941;70;20170;-79
2022/10/05 10:55:04;;;;;;;2.05;0.68;;;;;;;31.55;23.46;93450.31;2051489;70;20519;-80
2022/10/05 10:57:42;;;;;;;1.48;0.80;;;;;;;31.84;22.25;93444.31;2051715;70;20169;-79
2022/10/05 11:00:15;;;;;;;1.43;0.90;;;;;;;34.09;19.90;93440.25;2051319;70;20709;-77
2022/10/05 11:02:41;;;;;;;1.92;0.90;;;;;;;34.34;20.73;93443.47;2051666;70;20209;-79
2022/10/05 11:05:34;;;;;;;2.42;0.70;;;;;;;34.40;20.19;93439.72;2051748;70;20298;-81
2022/10/05 11:08:06;;;;;;;4.20;0.98;;;;;;;35.11;19.90;93437.69;2051660;70;20146;-80
2022/10/05 11:11:02;;;;;;;2.85;0.75;;;;;;;35.48;18.13;93428.16;2051607;70;20171;-80
2022/10/05 11:13:40;;;;;;;1.67;0.75;;;;;;;35.96;18.62;93431.44;2051596;70;20256;-80
2022/10/05 11:16:40;;;;;;;2.60;0.80;;;;;;;36.99;16.88;93427.38;2051496;70;20134;-79
2022/10/05 11:19:37;;;;;;;2.17;1.00;;;;;;;37.21;16.68;93417.22;2051280;70;20142;-81
2022/10/05 11:22:06;;;;;;;2.35;0.82;;;;;;;36.99;17.01;93412.69;2050689;70;20173;-81
2022/10/05 11:24:54;;;;;;;3.80;0.95;;;;;;;36.81;19.22;93408.75;2051265;70;20150;-82
2022/10/05 11:27:39;;;;;;;2.15;0.90;;;;;;;36.74;17.15;93403.81;2049669;70;20336;-82
2022/10/05 11:30:18;;;;;;;2.40;0.98;;;;;;;36.71;18.01;93397.31;2051058;70;20660;-81
2022/10/05 11:33:10;;;;;;;1.33;0.80;;;;;;;36.90;17.97;93398.22;2051527;70;20236;-79
2022/10/05 11:36:07;;;;;;;1.92;1.00;;;;;;;37.19;17.72;93382.03;2051053;70;20160;-79
2022/10/05 11:39:10;;;;;;;2.63;1.08;;;;;;;38.66;17.56;93392.75;2051392;69;20154;-81
2022/10/05 11:41:40;;;;;;;2.85;0.93;;;;;;;36.72;16.82;93381.16;2051096;70;20157;-79
2022/10/05 11:44:34;;;;;;;3.60;1.15;;;;;;;37.22;17.99;93380.50;2050981;70;20143;-79
2022/10/05 11:47:24;;;;;;;1.88;1.10;;;;;;;36.06;18.16;93375.53;2051188;70;20166;-78
2022/10/05 11:50:11;;;;;;;2.33;1.20;;;;;;;37.16;18.28;93372.59;2051068;70;20186;-80
2022/10/05 11:52:45;;;;;;;2.85;1.20;;;;;;;36.70;17.30;93369.47;2047794;70;20213;-80
2022/10/05 11:55:16;;;;;;;2.67;0.85;;;;;;;36.99;16.96;93366.47;2047295;70;20159;-80
2022/10/05 11:57:49;;;;;;;4.13;1.15;;;;;;;37.96;17.28;93365.00;2047340;70;20146;-78
2022/10/05 12:00:39;;;;;;;3.42;0.93;;;;;;;35.29;18.24;93355.38;2047090;70;20158;-78
2022/10/05 12:03:31;;;;;;;2.03;1.10;;;;;;;37.72;17.48;93357.66;2047332;70;20146;-81
2022/10/05 12:05:56;;;;;;;1.63;0.98;;;;;;;38.17;16.41;93353.28;2046972;70;20296;-80
2022/10/05 12:08:44;;;;;;;2.42;1.08;;;;;;;38.80;16.23;93356.97;2047248;70;20281;-77
2022/10/05 12:11:13;;;;;;;5.07;1.25;;;;;;;38.44;16.13;93353.09;2046233;70;20166;-79
2022/10/05 12:13:51;;;;;;;3.90;1.02;;;;;;;37.80;16.07;93345.66;2046105;70;20295;-78
2022/10/05 12:16:34;;;;;;;2.97;1.30;;;;;;;38.29;15.87;93352.13;2046211;70;20316;-78
2022/10/05 12:19:14;;;;;;;2.83;1.00;;;;;;;37.00;17.01;93338.56;2046447;70;20158;-79
2022/10/05 12:22:09;;;;;;;2.22;1.15;;;;;;;37.79;18.39;93337.63;2047193;70;20146;-78
2022/10/05 12:24:35;;;;;;;1.95;0.80;;;;;;;37.31;17.69;93331.78;2047182;70;20184;-79
2022/10/05 12:27:04;;;;;;;1.73;0.60;;;;;;;37.70;16.83;93336.44;2047662;70;20582;-77
2022/10/05 12:29:59;;;;;;;4.63;1.02;;;;;;;37.29;16.76;93325.94;2047605;70;20184;-81
2022/10/05 12:33:03;;;;;;;1.73;0.80;;;;;;;37.89;17.71;93323.34;2047749;70;20139;-80
2022/10/05 12:35:31;;;;;;;1.25;0.70;;;;;;;37.55;16.34;93313.41;2047854;70;20147;-78
2022/10/05 12:38:09;;;;;;;1.67;0.93;;;;;;;37.85;17.67;93316.88;2047244;70;20135;-81
2022/10/05 12:40:51;;;;;;;1.42;0.70;;;;;;;36.60;17.79;93311.09;2047889;70;20138;-80
2022/10/05 12:43:35;;;;;;;1.75;0.70;;;;;;;36.23;18.06;93303.28;2047761;70;20147;-79
2022/10/05 12:46:37;;;;;;;4.43;0.90;;;;;;;36.40;17.87;93309.44;2047666;70;20575;-78
2022/10/05 12:49:11;;;;;;;3.03;0.90;;;;;;;37.71;18.67;93305.56;2048452;70;20223;-78
2022/10/05 12:51:42;;;;;;;1.40;0.60;;;;;;;38.81;17.66;93310.59;2050144;70;20206;-82
2022/10/05 12:54:19;;;;;;;0.57;0.45;;;;;;;35.94;19.17;93300.38;2047690;70;20158;-81
2022/10/05 12:56:50;;;;;;;2.88;1.17;;;;;;;35.64;19.65;93299.66;2047708;70;20134;-79
2022/10/05 12:59:37;;;;;;;1.73;0.80;;;;;;;37.25;19.14;93300.41;2047822;70;20147;-79